sensor_id;sensor_type;location;lat;lon;timestamp;P1;durP1;ratioP1;P2;durP2;ratioP2
10811;SDS011;5458;51.496;7.334;2022-11-20T00:01:20;24.87;;;18.93;;
10811;SDS011;5458;51.496;7.334;2022-11-20T00:03:47;24.80;;;20.07;;
10811;SDS011;5458;51.496;7.334;2022-11-20T00:06:17;28.30;;;19.93;;
10811;SDS011;5458;51.496;7.334;2022-11-20T00:08:43;25.93;;;21.07;;
10811;SDS011;5458;51.496;7.334;2022-11-20T00:11:10;22.17;;;18.67;;
10811;SDS011;5458;51.496;7.334;2022-11-20T00:13:36;25.77;;;20.10;;
10811;SDS011;5458;51.496;7.334;2022-11-20T00:16:02;26.87;;;20.17;;
10811;SDS011;5458;51.496;7.334;2022-11-20T00:18:30;27.97;;;20.97;;
10811;SDS011;5458;51.496;7.334;2022-11-20T00:21:04;25.83;;;20.07;;
10811;SDS011;5458;51.496;7.334;2022-11-20T00:23:31;28.30;;;20.87;;
10811;SDS011;5458;51.496;7.334;2022-11-20T00:25:56;24.23;;;19.70;;
10811;SDS011;5458;51.496;7.334;2022-11-20T00:28:27;27.60;;;21.53;;
10811;SDS011;5458;51.496;7.334;2022-11-20T00:30:54;26.43;;;19.43;;
10811;SDS011;5458;51.496;7.334;2022-11-20T00:33:39;27.50;;;20.90;;
10811;SDS011;5458;51.496;7.334;2022-11-20T00:36:14;24.97;;;20.33;;
10811;SDS011;5458;51.496;7.334;2022-11-20T00:38:42;25.93;;;21.17;;
10811;SDS011;5458;51.496;7.334;2022-11-20T00:41:09;23.93;;;19.57;;
10811;SDS011;5458;51.496;7.334;2022-11-20T00:43:36;24.50;;;20.23;;
10811;SDS011;5458;51.496;7.334;2022-11-20T00:46:03;22.53;;;18.07;;
10811;SDS011;5458;51.496;7.334;2022-11-20T00:48:31;26.43;;;18.73;;
10811;SDS011;5458;51.496;7.334;2022-11-20T00:50:57;21.90;;;18.73;;
10811;SDS011;5458;51.496;7.334;2022-11-20T00:53:23;22.20;;;19.00;;
10811;SDS011;5458;51.496;7.334;2022-11-20T00:55:53;21.80;;;18.17;;
10811;SDS011;5458;51.496;7.334;2022-11-20T00:58:19;22.07;;;18.47;;
10811;SDS011;5458;51.496;7.334;2022-11-20T01:00:45;23.90;;;18.00;;
10811;SDS011;5458;51.496;7.334;2022-11-20T01:03:11;23.97;;;18.33;;
10811;SDS011;5458;51.496;7.334;2022-11-20T01:05:36;26.97;;;21.10;;
10811;SDS011;5458;51.496;7.334;2022-11-20T01:08:02;23.13;;;18.77;;
10811;SDS011;5458;51.496;7.334;2022-11-20T01:10:27;23.73;;;19.10;;
10811;SDS011;5458;51.496;7.334;2022-11-20T01:12:53;23.50;;;20.53;;
10811;SDS011;5458;51.496;7.334;2022-11-20T01:15:39;26.07;;;20.07;;
10811;SDS011;5458;51.496;7.334;2022-11-20T01:18:04;22.23;;;19.23;;
10811;SDS011;5458;51.496;7.334;2022-11-20T01:20:33;27.07;;;20.17;;
10811;SDS011;5458;51.496;7.334;2022-11-20T01:23:00;26.23;;;19.57;;
10811;SDS011;5458;51.496;7.334;2022-11-20T01:25:26;26.83;;;19.17;;
10811;SDS011;5458;51.496;7.334;2022-11-20T01:27:52;25.10;;;18.97;;
10811;SDS011;5458;51.496;7.334;2022-11-20T01:30:17;25.33;;;20.80;;
10811;SDS011;5458;51.496;7.334;2022-11-20T01:32:43;24.87;;;20.60;;
10811;SDS011;5458;51.496;7.334;2022-11-20T01:35:09;26.90;;;19.43;;
10811;SDS011;5458;51.496;7.334;2022-11-20T01:37:35;25.57;;;20.07;;
10811;SDS011;5458;51.496;7.334;2022-11-20T01:40:00;25.80;;;19.87;;
10811;SDS011;5458;51.496;7.334;2022-11-20T01:42:26;25.37;;;19.67;;
10811;SDS011;5458;51.496;7.334;2022-11-20T01:48:11;26.77;;;19.60;;
10811;SDS011;5458;51.496;7.334;2022-11-20T01:50:37;24.73;;;19.00;;
10811;SDS011;5458;51.496;7.334;2022-11-20T01:53:07;21.47;;;18.70;;
10811;SDS011;5458;51.496;7.334;2022-11-20T01:55:36;23.37;;;17.80;;
10811;SDS011;5458;51.496;7.334;2022-11-20T01:58:06;23.07;;;17.87;;
10811;SDS011;5458;51.496;7.334;2022-11-20T02:00:32;20.47;;;16.47;;
10811;SDS011;5458;51.496;7.334;2022-11-20T02:02:59;23.40;;;17.23;;
10811;SDS011;5458;51.496;7.334;2022-11-20T02:05:31;24.03;;;18.17;;
10811;SDS011;5458;51.496;7.334;2022-11-20T02:08:04;20.97;;;17.50;;
10811;SDS011;5458;51.496;7.334;2022-11-20T02:10:31;21.97;;;17.00;;
10811;SDS011;5458;51.496;7.334;2022-11-20T02:12:57;22.37;;;18.60;;
10811;SDS011;5458;51.496;7.334;2022-11-20T02:15:41;22.87;;;17.63;;
10811;SDS011;5458;51.496;7.334;2022-11-20T02:18:07;25.83;;;19.00;;
10811;SDS011;5458;51.496;7.334;2022-11-20T02:20:35;22.33;;;17.80;;
10811;SDS011;5458;51.496;7.334;2022-11-20T02:23:17;24.20;;;19.20;;
10811;SDS011;5458;51.496;7.334;2022-11-20T02:25:49;23.10;;;19.03;;
10811;SDS011;5458;51.496;7.334;2022-11-20T02:28:16;21.97;;;17.03;;
10811;SDS011;5458;51.496;7.334;2022-11-20T02:30:42;23.40;;;18.53;;
10811;SDS011;5458;51.496;7.334;2022-11-20T02:33:08;21.17;;;18.17;;
10811;SDS011;5458;51.496;7.334;2022-11-20T02:38:00;20.47;;;17.63;;
10811;SDS011;5458;51.496;7.334;2022-11-20T02:40:27;21.20;;;17.43;;
10811;SDS011;5458;51.496;7.334;2022-11-20T02:42:56;22.33;;;17.70;;
10811;SDS011;5458;51.496;7.334;2022-11-20T02:45:22;21.00;;;17.30;;
10811;SDS011;5458;51.496;7.334;2022-11-20T02:47:48;23.47;;;18.50;;
10811;SDS011;5458;51.496;7.334;2022-11-20T02:50:14;22.60;;;18.23;;
10811;SDS011;5458;51.496;7.334;2022-11-20T02:52:40;21.60;;;17.70;;
10811;SDS011;5458;51.496;7.334;2022-11-20T02:55:06;23.60;;;17.63;;
10811;SDS011;5458;51.496;7.334;2022-11-20T02:57:32;23.10;;;18.43;;
10811;SDS011;5458;51.496;7.334;2022-11-20T02:59:57;21.23;;;17.07;;
10811;SDS011;5458;51.496;7.334;2022-11-20T03:02:23;25.60;;;18.60;;
10811;SDS011;5458;51.496;7.334;2022-11-20T03:04:48;22.83;;;17.97;;
10811;SDS011;5458;51.496;7.334;2022-11-20T03:07:14;22.60;;;17.90;;
10811;SDS011;5458;51.496;7.334;2022-11-20T03:09:39;21.53;;;17.57;;
10811;SDS011;5458;51.496;7.334;2022-11-20T03:12:05;24.70;;;18.37;;
10811;SDS011;5458;51.496;7.334;2022-11-20T03:14:31;25.10;;;18.90;;
10811;SDS011;5458;51.496;7.334;2022-11-20T03:16:56;22.60;;;18.07;;
10811;SDS011;5458;51.496;7.334;2022-11-20T03:19:22;25.10;;;19.50;;
10811;SDS011;5458;51.496;7.334;2022-11-20T03:21:48;21.97;;;18.13;;
10811;SDS011;5458;51.496;7.334;2022-11-20T03:24:14;25.80;;;20.13;;
10811;SDS011;5458;51.496;7.334;2022-11-20T03:26:40;23.03;;;18.13;;
10811;SDS011;5458;51.496;7.334;2022-11-20T03:29:05;26.37;;;18.27;;
10811;SDS011;5458;51.496;7.334;2022-11-20T03:31:38;23.73;;;18.33;;
10811;SDS011;5458;51.496;7.334;2022-11-20T03:34:08;22.57;;;17.40;;
10811;SDS011;5458;51.496;7.334;2022-11-20T03:36:35;24.10;;;17.97;;
10811;SDS011;5458;51.496;7.334;2022-11-20T03:39:03;24.50;;;17.97;;
10811;SDS011;5458;51.496;7.334;2022-11-20T03:41:30;21.90;;;17.93;;
10811;SDS011;5458;51.496;7.334;2022-11-20T03:44:00;24.23;;;18.90;;
10811;SDS011;5458;51.496;7.334;2022-11-20T03:46:28;21.93;;;17.33;;
10811;SDS011;5458;51.496;7.334;2022-11-20T03:48:53;23.07;;;17.60;;
10811;SDS011;5458;51.496;7.334;2022-11-20T03:51:21;31.90;;;18.17;;
10811;SDS011;5458;51.496;7.334;2022-11-20T03:53:47;23.33;;;17.63;;
10811;SDS011;5458;51.496;7.334;2022-11-20T03:56:14;22.23;;;17.23;;
10811;SDS011;5458;51.496;7.334;2022-11-20T03:58:41;24.40;;;18.90;;
10811;SDS011;5458;51.496;7.334;2022-11-20T04:01:08;24.97;;;17.73;;
10811;SDS011;5458;51.496;7.334;2022-11-20T04:03:36;24.47;;;18.23;;
10811;SDS011;5458;51.496;7.334;2022-11-20T04:06:06;23.13;;;17.83;;
10811;SDS011;5458;51.496;7.334;2022-11-20T04:08:35;23.20;;;18.67;;
10811;SDS011;5458;51.496;7.334;2022-11-20T04:11:10;20.87;;;17.27;;
10811;SDS011;5458;51.496;7.334;2022-11-20T04:13:37;23.53;;;18.93;;
10811;SDS011;5458;51.496;7.334;2022-11-20T04:16:04;24.87;;;18.87;;
10811;SDS011;5458;51.496;7.334;2022-11-20T04:18:30;24.43;;;19.20;;
10811;SDS011;5458;51.496;7.334;2022-11-20T04:20:56;20.27;;;17.47;;
10811;SDS011;5458;51.496;7.334;2022-11-20T04:23:22;22.30;;;18.93;;
10811;SDS011;5458;51.496;7.334;2022-11-20T04:25:48;21.70;;;18.20;;
10811;SDS011;5458;51.496;7.334;2022-11-20T04:28:13;24.23;;;18.47;;
10811;SDS011;5458;51.496;7.334;2022-11-20T04:30:39;23.27;;;17.67;;
10811;SDS011;5458;51.496;7.334;2022-11-20T04:33:05;25.67;;;18.97;;
10811;SDS011;5458;51.496;7.334;2022-11-20T04:35:33;22.60;;;19.50;;
10811;SDS011;5458;51.496;7.334;2022-11-20T04:37:59;23.87;;;19.13;;
10811;SDS011;5458;51.496;7.334;2022-11-20T04:40:24;23.03;;;18.30;;
10811;SDS011;5458;51.496;7.334;2022-11-20T04:42:50;25.63;;;18.70;;
10811;SDS011;5458;51.496;7.334;2022-11-20T04:45:15;29.20;;;20.30;;
10811;SDS011;5458;51.496;7.334;2022-11-20T04:47:41;23.07;;;18.37;;
10811;SDS011;5458;51.496;7.334;2022-11-20T04:50:06;23.50;;;18.93;;
10811;SDS011;5458;51.496;7.334;2022-11-20T04:52:32;24.03;;;18.53;;
10811;SDS011;5458;51.496;7.334;2022-11-20T04:54:58;24.00;;;19.07;;
10811;SDS011;5458;51.496;7.334;2022-11-20T04:57:23;22.80;;;18.27;;
10811;SDS011;5458;51.496;7.334;2022-11-20T04:59:49;27.97;;;19.77;;
10811;SDS011;5458;51.496;7.334;2022-11-20T05:02:14;24.87;;;19.00;;
10811;SDS011;5458;51.496;7.334;2022-11-20T05:04:40;26.63;;;18.73;;
10811;SDS011;5458;51.496;7.334;2022-11-20T05:07:06;21.13;;;18.43;;
10811;SDS011;5458;51.496;7.334;2022-11-20T05:09:31;23.90;;;18.80;;
10811;SDS011;5458;51.496;7.334;2022-11-20T05:11:57;22.83;;;18.20;;
10811;SDS011;5458;51.496;7.334;2022-11-20T05:14:22;21.90;;;17.60;;
10811;SDS011;5458;51.496;7.334;2022-11-20T05:16:48;24.57;;;17.73;;
10811;SDS011;5458;51.496;7.334;2022-11-20T05:19:13;19.77;;;16.03;;
10811;SDS011;5458;51.496;7.334;2022-11-20T05:21:39;23.57;;;18.00;;
10811;SDS011;5458;51.496;7.334;2022-11-20T05:24:05;19.53;;;17.37;;
10811;SDS011;5458;51.496;7.334;2022-11-20T05:26:31;24.07;;;18.10;;
10811;SDS011;5458;51.496;7.334;2022-11-20T05:28:57;24.23;;;18.40;;
10811;SDS011;5458;51.496;7.334;2022-11-20T05:31:23;21.67;;;17.50;;
10811;SDS011;5458;51.496;7.334;2022-11-20T05:33:50;21.30;;;17.53;;
10811;SDS011;5458;51.496;7.334;2022-11-20T05:36:15;23.33;;;17.37;;
10811;SDS011;5458;51.496;7.334;2022-11-20T05:38:42;24.73;;;17.20;;
10811;SDS011;5458;51.496;7.334;2022-11-20T05:43:39;24.57;;;18.43;;
10811;SDS011;5458;51.496;7.334;2022-11-20T05:46:06;20.53;;;16.97;;
10811;SDS011;5458;51.496;7.334;2022-11-20T05:48:33;22.83;;;17.93;;
10811;SDS011;5458;51.496;7.334;2022-11-20T05:51:00;21.27;;;17.90;;
10811;SDS011;5458;51.496;7.334;2022-11-20T05:53:27;21.77;;;17.73;;
10811;SDS011;5458;51.496;7.334;2022-11-20T05:56:03;22.37;;;17.63;;
10811;SDS011;5458;51.496;7.334;2022-11-20T05:58:30;26.20;;;18.27;;
10811;SDS011;5458;51.496;7.334;2022-11-20T06:01:30;23.60;;;18.53;;
10811;SDS011;5458;51.496;7.334;2022-11-20T06:03:49;21.93;;;17.93;;
10811;SDS011;5458;51.496;7.334;2022-11-20T06:06:16;22.57;;;18.33;;
10811;SDS011;5458;51.496;7.334;2022-11-20T06:08:43;26.43;;;18.57;;
10811;SDS011;5458;51.496;7.334;2022-11-20T06:11:10;23.23;;;18.57;;
10811;SDS011;5458;51.496;7.334;2022-11-20T06:13:38;23.20;;;17.97;;
10811;SDS011;5458;51.496;7.334;2022-11-20T06:16:04;24.73;;;18.33;;
10811;SDS011;5458;51.496;7.334;2022-11-20T06:18:30;24.90;;;18.67;;
10811;SDS011;5458;51.496;7.334;2022-11-20T06:21:06;25.07;;;19.57;;
10811;SDS011;5458;51.496;7.334;2022-11-20T06:23:33;26.37;;;18.93;;
10811;SDS011;5458;51.496;7.334;2022-11-20T06:26:03;23.70;;;19.03;;
10811;SDS011;5458;51.496;7.334;2022-11-20T06:28:31;21.67;;;18.80;;
10811;SDS011;5458;51.496;7.334;2022-11-20T06:30:57;25.23;;;18.93;;
10811;SDS011;5458;51.496;7.334;2022-11-20T06:33:23;22.73;;;18.90;;
10811;SDS011;5458;51.496;7.334;2022-11-20T06:35:49;24.97;;;18.67;;
10811;SDS011;5458;51.496;7.334;2022-11-20T06:38:15;24.27;;;18.70;;
10811;SDS011;5458;51.496;7.334;2022-11-20T06:40:40;23.50;;;19.10;;
10811;SDS011;5458;51.496;7.334;2022-11-20T06:43:07;22.70;;;17.70;;
10811;SDS011;5458;51.496;7.334;2022-11-20T06:45:34;23.57;;;18.57;;
10811;SDS011;5458;51.496;7.334;2022-11-20T06:48:00;24.40;;;18.87;;
10811;SDS011;5458;51.496;7.334;2022-11-20T06:50:25;26.13;;;19.07;;
10811;SDS011;5458;51.496;7.334;2022-11-20T06:52:51;22.07;;;19.00;;
10811;SDS011;5458;51.496;7.334;2022-11-20T06:55:17;22.73;;;18.93;;
10811;SDS011;5458;51.496;7.334;2022-11-20T06:57:42;25.47;;;18.80;;
10811;SDS011;5458;51.496;7.334;2022-11-20T07:00:08;23.57;;;18.53;;
10811;SDS011;5458;51.496;7.334;2022-11-20T07:02:34;24.20;;;19.40;;
10811;SDS011;5458;51.496;7.334;2022-11-20T07:04:59;25.90;;;18.83;;
10811;SDS011;5458;51.496;7.334;2022-11-20T07:07:25;24.20;;;18.70;;
10811;SDS011;5458;51.496;7.334;2022-11-20T07:09:50;25.27;;;19.73;;
10811;SDS011;5458;51.496;7.334;2022-11-20T07:12:16;25.10;;;18.13;;
10811;SDS011;5458;51.496;7.334;2022-11-20T07:14:42;22.20;;;17.83;;
10811;SDS011;5458;51.496;7.334;2022-11-20T07:17:07;25.53;;;19.37;;
10811;SDS011;5458;51.496;7.334;2022-11-20T07:19:33;23.07;;;17.93;;
10811;SDS011;5458;51.496;7.334;2022-11-20T07:21:58;23.60;;;19.30;;
10811;SDS011;5458;51.496;7.334;2022-11-20T07:24:24;24.37;;;18.20;;
10811;SDS011;5458;51.496;7.334;2022-11-20T07:26:49;23.60;;;17.67;;
10811;SDS011;5458;51.496;7.334;2022-11-20T07:29:15;22.37;;;18.53;;
10811;SDS011;5458;51.496;7.334;2022-11-20T07:31:41;25.63;;;18.37;;
10811;SDS011;5458;51.496;7.334;2022-11-20T07:34:07;20.33;;;17.43;;
10811;SDS011;5458;51.496;7.334;2022-11-20T07:36:33;23.53;;;17.60;;
10811;SDS011;5458;51.496;7.334;2022-11-20T07:38:59;21.83;;;18.93;;
10811;SDS011;5458;51.496;7.334;2022-11-20T07:41:25;22.00;;;17.83;;
10811;SDS011;5458;51.496;7.334;2022-11-20T07:43:50;25.87;;;17.77;;
10811;SDS011;5458;51.496;7.334;2022-11-20T07:46:16;24.77;;;18.20;;
10811;SDS011;5458;51.496;7.334;2022-11-20T07:48:41;24.87;;;18.93;;
10811;SDS011;5458;51.496;7.334;2022-11-20T07:51:07;23.17;;;17.13;;
10811;SDS011;5458;51.496;7.334;2022-11-20T07:53:32;23.03;;;17.50;;
10811;SDS011;5458;51.496;7.334;2022-11-20T07:56:01;23.30;;;17.70;;
10811;SDS011;5458;51.496;7.334;2022-11-20T07:58:30;20.23;;;17.03;;
10811;SDS011;5458;51.496;7.334;2022-11-20T08:00:58;23.20;;;18.60;;
10811;SDS011;5458;51.496;7.334;2022-11-20T08:03:30;26.87;;;17.20;;
10811;SDS011;5458;51.496;7.334;2022-11-20T08:05:58;23.40;;;17.93;;
10811;SDS011;5458;51.496;7.334;2022-11-20T08:08:25;22.00;;;17.40;;
10811;SDS011;5458;51.496;7.334;2022-11-20T08:10:51;22.33;;;17.00;;
10811;SDS011;5458;51.496;7.334;2022-11-20T08:13:16;21.73;;;17.27;;
10811;SDS011;5458;51.496;7.334;2022-11-20T08:16:00;20.63;;;16.80;;
10811;SDS011;5458;51.496;7.334;2022-11-20T08:18:26;21.27;;;16.27;;
10811;SDS011;5458;51.496;7.334;2022-11-20T08:20:51;24.00;;;16.80;;
10811;SDS011;5458;51.496;7.334;2022-11-20T08:23:17;21.67;;;17.23;;
10811;SDS011;5458;51.496;7.334;2022-11-20T08:25:43;22.03;;;17.70;;
10811;SDS011;5458;51.496;7.334;2022-11-20T08:28:09;24.00;;;18.50;;
10811;SDS011;5458;51.496;7.334;2022-11-20T08:30:35;22.83;;;17.33;;
10811;SDS011;5458;51.496;7.334;2022-11-20T08:33:02;22.73;;;17.80;;
10811;SDS011;5458;51.496;7.334;2022-11-20T08:35:33;24.53;;;17.37;;
10811;SDS011;5458;51.496;7.334;2022-11-20T08:38:03;23.37;;;18.03;;
10811;SDS011;5458;51.496;7.334;2022-11-20T08:40:29;23.57;;;16.43;;
10811;SDS011;5458;51.496;7.334;2022-11-20T08:42:54;21.80;;;18.33;;
10811;SDS011;5458;51.496;7.334;2022-11-20T08:45:20;22.93;;;16.90;;
10811;SDS011;5458;51.496;7.334;2022-11-20T08:47:46;18.43;;;15.60;;
10811;SDS011;5458;51.496;7.334;2022-11-20T08:50:12;18.25;;;15.70;;
10811;SDS011;5458;51.496;7.334;2022-11-20T08:52:39;16.88;;;14.88;;
10811;SDS011;5458;51.496;7.334;2022-11-20T08:55:05;16.15;;;14.55;;
10811;SDS011;5458;51.496;7.334;2022-11-20T08:57:32;17.77;;;15.57;;
10811;SDS011;5458;51.496;7.334;2022-11-20T08:59:58;17.38;;;15.50;;
10811;SDS011;5458;51.496;7.334;2022-11-20T09:02:24;17.77;;;15.88;;
10811;SDS011;5458;51.496;7.334;2022-11-20T09:04:49;17.33;;;15.45;;
10811;SDS011;5458;51.496;7.334;2022-11-20T09:07:15;17.35;;;14.98;;
10811;SDS011;5458;51.496;7.334;2022-11-20T09:09:41;16.38;;;14.65;;
10811;SDS011;5458;51.496;7.334;2022-11-20T09:12:06;16.50;;;14.75;;
10811;SDS011;5458;51.496;7.334;2022-11-20T09:14:32;20.30;;;16.73;;
10811;SDS011;5458;51.496;7.334;2022-11-20T09:16:58;18.10;;;16.33;;
10811;SDS011;5458;51.496;7.334;2022-11-20T09:19:24;17.75;;;15.25;;
10811;SDS011;5458;51.496;7.334;2022-11-20T09:21:50;16.85;;;14.98;;
10811;SDS011;5458;51.496;7.334;2022-11-20T09:24:16;17.80;;;15.35;;
10811;SDS011;5458;51.496;7.334;2022-11-20T09:26:42;18.23;;;15.07;;
10811;SDS011;5458;51.496;7.334;2022-11-20T09:29:08;21.30;;;15.23;;
10811;SDS011;5458;51.496;7.334;2022-11-20T09:31:34;16.63;;;14.82;;
10811;SDS011;5458;51.496;7.334;2022-11-20T09:33:59;17.58;;;15.68;;
10811;SDS011;5458;51.496;7.334;2022-11-20T09:36:25;17.10;;;15.30;;
10811;SDS011;5458;51.496;7.334;2022-11-20T09:38:51;18.40;;;15.52;;
10811;SDS011;5458;51.496;7.334;2022-11-20T09:47:12;20.70;;;17.08;;
10811;SDS011;5458;51.496;7.334;2022-11-20T09:55:29;19.10;;;15.48;;
10811;SDS011;5458;51.496;7.334;2022-11-20T09:57:55;19.17;;;15.40;;
10811;SDS011;5458;51.496;7.334;2022-11-20T10:00:22;21.85;;;15.65;;
10811;SDS011;5458;51.496;7.334;2022-11-20T10:02:49;20.02;;;14.98;;
10811;SDS011;5458;51.496;7.334;2022-11-20T10:05:40;17.13;;;15.00;;
10811;SDS011;5458;51.496;7.334;2022-11-20T10:11:20;19.15;;;13.50;;
10811;SDS011;5458;51.496;7.334;2022-11-20T10:19:18;11.93;;;10.38;;
10811;SDS011;5458;51.496;7.334;2022-11-20T10:21:58;15.65;;;10.45;;
10811;SDS011;5458;51.496;7.334;2022-11-20T10:29:41;11.95;;;9.82;;
10811;SDS011;5458;51.496;7.334;2022-11-20T10:32:18;12.00;;;10.13;;
10811;SDS011;5458;51.496;7.334;2022-11-20T10:37:33;16.05;;;12.77;;
10811;SDS011;5458;51.496;7.334;2022-11-20T10:42:38;13.13;;;11.57;;
10811;SDS011;5458;51.496;7.334;2022-11-20T10:45:27;13.00;;;10.90;;
10811;SDS011;5458;51.496;7.334;2022-11-20T10:48:16;11.75;;;10.38;;
10811;SDS011;5458;51.496;7.334;2022-11-20T10:50:53;12.40;;;10.85;;
10811;SDS011;5458;51.496;7.334;2022-11-20T10:56:16;14.05;;;11.23;;
10811;SDS011;5458;51.496;7.334;2022-11-20T11:01:43;13.00;;;10.32;;
10811;SDS011;5458;51.496;7.334;2022-11-20T11:04:18;10.55;;;9.43;;
10811;SDS011;5458;51.496;7.334;2022-11-20T11:06:57;10.63;;;9.50;;
10811;SDS011;5458;51.496;7.334;2022-11-20T11:09:34;14.80;;;10.40;;
10811;SDS011;5458;51.496;7.334;2022-11-20T11:12:08;12.43;;;10.98;;
10811;SDS011;5458;51.496;7.334;2022-11-20T11:14:44;12.93;;;10.65;;
10811;SDS011;5458;51.496;7.334;2022-11-20T11:17:31;13.55;;;11.00;;
10811;SDS011;5458;51.496;7.334;2022-11-20T11:20:02;13.52;;;11.18;;
10811;SDS011;5458;51.496;7.334;2022-11-20T11:22:31;18.50;;;16.45;;
10811;SDS011;5458;51.496;7.334;2022-11-20T11:24:58;17.13;;;14.02;;
10811;SDS011;5458;51.496;7.334;2022-11-20T11:27:24;15.07;;;12.43;;
10811;SDS011;5458;51.496;7.334;2022-11-20T11:29:50;17.13;;;13.63;;
10811;SDS011;5458;51.496;7.334;2022-11-20T11:32:29;13.20;;;11.48;;
10811;SDS011;5458;51.496;7.334;2022-11-20T11:37:27;14.02;;;11.63;;
10811;SDS011;5458;51.496;7.334;2022-11-20T11:40:02;15.85;;;14.15;;
10811;SDS011;5458;51.496;7.334;2022-11-20T11:42:29;15.48;;;11.20;;
10811;SDS011;5458;51.496;7.334;2022-11-20T11:44:56;12.30;;;10.95;;
10811;SDS011;5458;51.496;7.334;2022-11-20T11:47:32;12.60;;;11.30;;
10811;SDS011;5458;51.496;7.334;2022-11-20T11:50:22;12.02;;;10.02;;
10811;SDS011;5458;51.496;7.334;2022-11-20T11:53:02;13.32;;;10.90;;
10811;SDS011;5458;51.496;7.334;2022-11-20T11:58:43;14.23;;;11.88;;
10811;SDS011;5458;51.496;7.334;2022-11-20T12:01:21;19.13;;;14.63;;
10811;SDS011;5458;51.496;7.334;2022-11-20T12:07:15;15.85;;;12.45;;
10811;SDS011;5458;51.496;7.334;2022-11-20T12:09:47;15.02;;;11.85;;
10811;SDS011;5458;51.496;7.334;2022-11-20T12:12:27;15.15;;;12.40;;
10811;SDS011;5458;51.496;7.334;2022-11-20T12:15:00;13.77;;;11.90;;
10811;SDS011;5458;51.496;7.334;2022-11-20T12:17:27;13.70;;;11.02;;
10811;SDS011;5458;51.496;7.334;2022-11-20T12:19:53;15.10;;;11.90;;
10811;SDS011;5458;51.496;7.334;2022-11-20T12:30:21;14.93;;;11.80;;
10811;SDS011;5458;51.496;7.334;2022-11-20T12:33:00;14.38;;;11.85;;
10811;SDS011;5458;51.496;7.334;2022-11-20T12:41:51;13.30;;;11.88;;
10811;SDS011;5458;51.496;7.334;2022-11-20T12:53:38;13.38;;;11.32;;
10811;SDS011;5458;51.496;7.334;2022-11-20T13:04:44;14.63;;;10.02;;
10811;SDS011;5458;51.496;7.334;2022-11-20T13:07:31;13.75;;;10.38;;
10811;SDS011;5458;51.496;7.334;2022-11-20T13:09:59;12.25;;;9.50;;
10811;SDS011;5458;51.496;7.334;2022-11-20T13:12:36;13.80;;;11.23;;
10811;SDS011;5458;51.496;7.334;2022-11-20T13:17:55;15.18;;;13.02;;
10811;SDS011;5458;51.496;7.334;2022-11-20T13:20:24;13.63;;;11.45;;
10811;SDS011;5458;51.496;7.334;2022-11-20T13:22:52;13.80;;;11.50;;
10811;SDS011;5458;51.496;7.334;2022-11-20T13:25:28;12.85;;;10.75;;
10811;SDS011;5458;51.496;7.334;2022-11-20T13:27:57;13.82;;;10.80;;
10811;SDS011;5458;51.496;7.334;2022-11-20T13:30:24;12.60;;;10.07;;
10811;SDS011;5458;51.496;7.334;2022-11-20T13:32:53;15.18;;;11.30;;
10811;SDS011;5458;51.496;7.334;2022-11-20T13:35:32;14.45;;;11.35;;
10811;SDS011;5458;51.496;7.334;2022-11-20T13:38:00;14.93;;;11.57;;
10811;SDS011;5458;51.496;7.334;2022-11-20T13:40:37;13.63;;;11.02;;
10811;SDS011;5458;51.496;7.334;2022-11-20T13:43:18;14.35;;;11.45;;
10811;SDS011;5458;51.496;7.334;2022-11-20T13:45:53;14.27;;;11.40;;
10811;SDS011;5458;51.496;7.334;2022-11-20T13:48:21;14.23;;;10.98;;
10811;SDS011;5458;51.496;7.334;2022-11-20T13:53:42;14.93;;;11.85;;
10811;SDS011;5458;51.496;7.334;2022-11-20T13:56:24;14.40;;;11.43;;
10811;SDS011;5458;51.496;7.334;2022-11-20T14:01:49;20.25;;;12.98;;
10811;SDS011;5458;51.496;7.334;2022-11-20T14:04:15;13.85;;;11.45;;
10811;SDS011;5458;51.496;7.334;2022-11-20T14:06:50;17.58;;;13.35;;
10811;SDS011;5458;51.496;7.334;2022-11-20T14:09:26;16.17;;;12.18;;
10811;SDS011;5458;51.496;7.334;2022-11-20T14:11:53;13.93;;;11.73;;
10811;SDS011;5458;51.496;7.334;2022-11-20T14:14:20;19.17;;;12.73;;
10811;SDS011;5458;51.496;7.334;2022-11-20T14:16:47;14.65;;;11.52;;
10811;SDS011;5458;51.496;7.334;2022-11-20T14:21:52;16.67;;;12.38;;
10811;SDS011;5458;51.496;7.334;2022-11-20T14:24:31;14.35;;;11.23;;
10811;SDS011;5458;51.496;7.334;2022-11-20T14:26:56;15.48;;;11.88;;
10811;SDS011;5458;51.496;7.334;2022-11-20T14:29:23;15.43;;;12.35;;
10811;SDS011;5458;51.496;7.334;2022-11-20T14:31:53;17.83;;;12.65;;
10811;SDS011;5458;51.496;7.334;2022-11-20T14:34:27;17.20;;;12.02;;
10811;SDS011;5458;51.496;7.334;2022-11-20T14:36:57;14.50;;;11.82;;
10811;SDS011;5458;51.496;7.334;2022-11-20T14:39:32;16.05;;;11.95;;
10811;SDS011;5458;51.496;7.334;2022-11-20T14:41:59;14.25;;;11.38;;
10811;SDS011;5458;51.496;7.334;2022-11-20T14:44:32;17.15;;;12.60;;
10811;SDS011;5458;51.496;7.334;2022-11-20T14:47:00;15.48;;;11.60;;
10811;SDS011;5458;51.496;7.334;2022-11-20T14:49:28;14.93;;;11.63;;
10811;SDS011;5458;51.496;7.334;2022-11-20T14:52:02;18.77;;;12.57;;
10811;SDS011;5458;51.496;7.334;2022-11-20T14:54:43;15.27;;;11.82;;
10811;SDS011;5458;51.496;7.334;2022-11-20T14:57:33;17.67;;;13.18;;
10811;SDS011;5458;51.496;7.334;2022-11-20T15:00:08;17.88;;;12.23;;
10811;SDS011;5458;51.496;7.334;2022-11-20T15:02:46;18.63;;;13.30;;
10811;SDS011;5458;51.496;7.334;2022-11-20T15:05:13;17.05;;;13.10;;
10811;SDS011;5458;51.496;7.334;2022-11-20T15:07:41;16.73;;;13.00;;
10811;SDS011;5458;51.496;7.334;2022-11-20T15:12:57;17.88;;;13.35;;
10811;SDS011;5458;51.496;7.334;2022-11-20T15:15:33;19.95;;;13.27;;
10811;SDS011;5458;51.496;7.334;2022-11-20T15:18:04;18.77;;;14.15;;
10811;SDS011;5458;51.496;7.334;2022-11-20T15:20:31;18.38;;;14.18;;
10811;SDS011;5458;51.496;7.334;2022-11-20T15:22:58;16.27;;;13.00;;
10811;SDS011;5458;51.496;7.334;2022-11-20T15:25:24;18.10;;;13.68;;
10811;SDS011;5458;51.496;7.334;2022-11-20T15:27:52;20.30;;;14.43;;
10811;SDS011;5458;51.496;7.334;2022-11-20T15:30:22;18.08;;;13.85;;
10811;SDS011;5458;51.496;7.334;2022-11-20T15:32:48;19.75;;;14.43;;
10811;SDS011;5458;51.496;7.334;2022-11-20T15:35:14;18.33;;;14.18;;
10811;SDS011;5458;51.496;7.334;2022-11-20T15:37:40;19.52;;;14.63;;
10811;SDS011;5458;51.496;7.334;2022-11-20T15:40:07;16.50;;;13.23;;
10811;SDS011;5458;51.496;7.334;2022-11-20T15:42:33;18.83;;;13.68;;
10811;SDS011;5458;51.496;7.334;2022-11-20T15:44:59;17.30;;;13.27;;
10811;SDS011;5458;51.496;7.334;2022-11-20T15:47:27;18.90;;;14.80;;
10811;SDS011;5458;51.496;7.334;2022-11-20T15:49:55;22.37;;;14.37;;
10811;SDS011;5458;51.496;7.334;2022-11-20T15:52:20;20.45;;;15.07;;
10811;SDS011;5458;51.496;7.334;2022-11-20T15:54:46;21.70;;;14.95;;
10811;SDS011;5458;51.496;7.334;2022-11-20T15:57:12;18.75;;;15.38;;
10811;SDS011;5458;51.496;7.334;2022-11-20T15:59:38;18.85;;;14.15;;
10811;SDS011;5458;51.496;7.334;2022-11-20T16:02:12;19.08;;;14.82;;
10811;SDS011;5458;51.496;7.334;2022-11-20T16:04:39;21.13;;;15.45;;
10811;SDS011;5458;51.496;7.334;2022-11-20T16:07:05;17.63;;;14.33;;
10811;SDS011;5458;51.496;7.334;2022-11-20T16:09:30;18.40;;;14.48;;
10811;SDS011;5458;51.496;7.334;2022-11-20T16:11:56;18.25;;;14.70;;
10811;SDS011;5458;51.496;7.334;2022-11-20T16:14:24;24.55;;;17.48;;
10811;SDS011;5458;51.496;7.334;2022-11-20T16:17:08;21.95;;;15.00;;
10811;SDS011;5458;51.496;7.334;2022-11-20T16:19:34;21.05;;;16.05;;
10811;SDS011;5458;51.496;7.334;2022-11-20T16:21:59;23.13;;;15.90;;
10811;SDS011;5458;51.496;7.334;2022-11-20T16:24:28;22.63;;;15.80;;